Time;durP1;ratioP1;P1;durP2;ratioP2;P2;SDS_P1;SDS_P2;PMS_P1;PMS_P2;Temp;Humidity;BMP_temperature;BMP_pressure;BME280_temperature;BME280_humidity;BME280_pressure;Samples;Min_cycle;Max_cycle;Signal;HPM_P1;HPM_P2
2021/03/19 00:00:07;;;;;;;6.06;3.90;;;;;;;3.38;74.64;98804.63;346236;109;1962014;-72
2021/03/19 00:01:14;;;;;;;5.68;3.53;;;;;;;3.36;74.95;98809.34;350419;110;1962980;-72
2021/03/19 00:02:20;;;;;;;6.79;3.24;;;;;;;3.35;75.03;98809.51;325178;115;2297180;-72
2021/03/19 00:03:26;;;;;;;5.53;3.41;;;;;;;3.36;75.23;98806.67;328812;118;1961948;-71
2021/03/19 00:04:32;;;;;;;7.22;4.13;;;;;;;3.33;74.31;98811.52;343301;115;1962024;-71
2021/03/19 00:05:38;;;;;;;5.23;2.92;;;;;;;3.33;74.98;98812.34;344161;115;1963967;-71
2021/03/19 00:06:45;;;;;;;5.79;3.14;;;;;;;3.28;74.60;98814.72;326937;115;2266501;-71
2021/03/19 00:07:53;;;;;;;5.21;2.99;;;;;;;3.27;74.35;98805.89;312056;115;1962015;-72
2021/03/19 00:09:06;;;;;;;5.36;3.24;;;;;;;3.28;74.49;98809.38;344885;115;1963960;-72
2021/03/19 00:10:15;;;;;;;6.54;3.82;;;;;;;3.28;75.02;98804.90;344223;115;1962005;-71
2021/03/19 00:11:22;;;;;;;5.31;2.70;;;;;;;3.29;74.60;98800.38;283360;115;2197882;-71
2021/03/19 00:12:27;;;;;;;5.72;3.13;;;;;;;3.31;74.77;98803.71;345539;115;1961997;-72
2021/03/19 00:13:33;;;;;;;4.33;2.57;;;;;;;3.29;74.90;98795.88;356148;110;1960816;-71
2021/03/19 00:14:38;;;;;;;6.61;3.55;;;;;;;3.30;74.51;98802.86;353300;112;1964018;-71
2021/03/19 00:15:44;;;;;;;7.46;3.01;;;;;;;3.27;74.11;98797.06;356280;112;1962001;-71
2021/03/19 00:16:50;;;;;;;6.18;3.18;;;;;;;3.26;74.58;98800.75;293368;110;2211550;-72
2021/03/19 00:18:01;;;;;;;5.32;2.91;;;;;;;3.23;74.33;98803.78;362396;110;1961956;-72
2021/03/19 00:19:08;;;;;;;5.20;2.76;;;;;;;3.16;73.87;98795.66;360307;110;1961907;-72
2021/03/19 00:20:17;;;;;;;4.18;2.36;;;;;;;3.14;74.69;98789.66;335880;109;2433903;-72
2021/03/19 00:21:22;;;;;;;6.76;4.05;;;;;;;3.16;74.55;98794.83;361136;110;1962027;-72
2021/03/19 00:22:28;;;;;;;5.19;2.71;;;;;;;3.07;74.65;98794.08;363040;110;1961929;-72
2021/03/19 00:23:33;;;;;;;5.67;2.89;;;;;;;3.07;74.67;98799.41;363159;110;1963072;-71
2021/03/19 00:24:39;;;;;;;5.41;2.96;;;;;;;3.05;74.76;98796.91;362527;110;1961905;-71
2021/03/19 00:25:45;;;;;;;5.52;3.13;;;;;;;3.07;74.90;98788.73;330418;110;2495043;-72
2021/03/19 00:26:51;;;;;;;4.34;2.63;;;;;;;3.04;74.71;98797.08;361723;112;1961099;-71
2021/03/19 00:27:56;;;;;;;5.97;3.11;;;;;;;3.07;74.36;98788.73;362970;110;1962904;-71
2021/03/19 00:29:02;;;;;;;6.60;2.87;;;;;;;3.07;74.91;98794.90;362177;110;1960895;-71
2021/03/19 00:30:12;;;;;;;6.28;3.09;;;;;;;3.06;74.49;98797.73;362901;110;1960934;-71
2021/03/19 00:31:17;;;;;;;4.39;2.58;;;;;;;2.97;74.41;98790.81;360309;110;1960883;-71
2021/03/19 00:32:25;;;;;;;6.09;3.04;;;;;;;2.99;74.57;98789.63;296959;108;2194888;-72
2021/03/19 00:33:32;;;;;;;5.73;3.05;;;;;;;3.02;75.16;98789.27;350964;112;1961978;-71
2021/03/19 00:34:37;;;;;;;5.83;2.58;;;;;;;3.02;74.88;98794.60;346021;114;1961963;-71
2021/03/19 00:35:43;;;;;;;5.13;2.86;;;;;;;3.05;75.30;98788.91;346570;114;1961952;-71
2021/03/19 00:36:50;;;;;;;5.58;2.97;;;;;;;3.11;75.05;98794.53;303424;114;2796918;-71
2021/03/19 00:38:07;;;;;;;5.68;2.91;;;;;;;3.07;74.96;98794.90;322383;114;1962948;-71
2021/03/19 00:39:12;;;;;;;5.49;2.75;;;;;;;3.09;75.00;98789.37;353952;112;1961856;-71
2021/03/19 00:40:20;;;;;;;5.17;2.80;;;;;;;3.09;75.01;98794.70;352206;113;1962045;-71
2021/03/19 00:41:25;;;;;;;4.39;2.25;;;;;;;3.12;74.92;98790.84;305003;112;2046717;-71
2021/03/19 00:42:30;;;;;;;4.84;2.74;;;;;;;3.09;74.48;98789.37;325142;113;1964356;-71
2021/03/19 00:43:35;;;;;;;5.76;2.70;;;;;;;3.12;75.03;98790.84;336489;113;1962988;-71
2021/03/19 00:44:41;;;;;;;5.32;3.09;;;;;;;3.15;75.23;98795.81;347974;114;1961994;-71
2021/03/19 00:45:47;;;;;;;4.71;2.80;;;;;;;3.17;74.33;98788.47;348588;114;1961922;-71
2021/03/19 00:46:52;;;;;;;4.95;2.68;;;;;;;3.11;74.61;98791.87;350881;114;1961892;-72
2021/03/19 00:48:11;;;;;;;4.52;2.56;;;;;;;3.11;74.73;98791.87;354984;112;1961972;-71
2021/03/19 00:49:19;;;;;;;5.93;3.14;;;;;;;3.12;74.26;98797.01;340771;116;1960990;-71
2021/03/19 00:50:33;;;;;;;4.80;2.31;;;;;;;3.00;74.16;98790.45;341375;117;1962080;-71
2021/03/19 00:51:39;;;;;;;4.91;2.81;;;;;;;3.03;74.60;98790.91;342154;117;1960882;-71
2021/03/19 00:52:55;;;;;;;4.73;2.60;;;;;;;3.04;74.69;98795.27;302849;115;2745994;-71
2021/03/19 00:54:01;;;;;;;6.96;3.48;;;;;;;3.00;74.31;98790.45;347025;115;1961926;-72
2021/03/19 00:55:10;;;;;;;5.12;2.61;;;;;;;3.02;75.33;98786.60;360157;110;1961972;-72
2021/03/19 00:56:16;;;;;;;5.83;2.69;;;;;;;3.05;75.50;98788.91;361797;110;1961978;-71
2021/03/19 00:57:21;;;;;;;5.02;3.09;;;;;;;3.04;74.78;98787.26;360260;110;1962997;-72
2021/03/19 00:58:26;;;;;;;4.67;2.71;;;;;;;3.06;74.21;98787.88;359397;110;1964968;-71
2021/03/19 00:59:34;;;;;;;5.06;3.07;;;;;;;3.03;73.93;98795.42;361786;110;1962006;-71
2021/03/19 01:00:40;;;;;;;4.11;2.24;;;;;;;2.98;74.44;98793.29;328967;110;2518021;-71
2021/03/19 01:01:46;;;;;;;5.19;2.74;;;;;;;3.00;74.93;98783.27;362488;110;1962009;-71
2021/03/19 01:02:52;;;;;;;4.74;2.78;;;;;;;3.00;74.70;98787.78;352077;109;1962133;-71
2021/03/19 01:03:57;;;;;;;5.21;2.50;;;;;;;2.97;74.29;98790.81;341466;116;1961984;-70
2021/03/19 01:05:13;;;;;;;5.65;3.26;;;;;;;2.36;74.48;98692.92;341940;116;1961979;-72
2021/03/19 01:06:18;;;;;;;4.69;3.02;;;;;;;2.87;74.57;98783.05;333337;119;1961965;-71
2021/03/19 01:07:25;;;;;;;5.44;3.01;;;;;;;2.87;74.23;98791.05;293821;117;2865976;-72
2021/03/19 01:08:30;;;;;;;5.34;3.26;;;;;;;2.89;75.05;98788.22;328792;117;1961983;-70
2021/03/19 01:09:35;;;;;;;3.86;2.44;;;;;;;2.91;75.39;98786.17;338390;116;1964935;-71
2021/03/19 01:10:48;;;;;;;5.68;3.09;;;;;;;2.96;74.89;98789.14;338963;117;1963054;-72
2021/03/19 01:11:54;;;;;;;5.57;2.82;;;;;;;2.98;75.01;98789.80;349532;114;1961972;-71
2021/03/19 01:13:00;;;;;;;5.50;3.16;;;;;;;2.98;74.80;98789.80;323538;115;1962982;-71
2021/03/19 01:14:06;;;;;;;5.29;3.25;;;;;;;2.97;74.47;98793.48;349113;114;1962008;-70
2021/03/19 01:15:12;;;;;;;4.40;2.62;;;;;;;2.95;74.87;98784.83;350686;114;1962024;-71
2021/03/19 01:16:19;;;;;;;7.62;3.59;;;;;;;2.99;75.54;98794.11;348962;113;1961993;-71
2021/03/19 01:17:26;;;;;;;6.83;3.42;;;;;;;2.94;74.51;98793.81;348537;114;1962029;-70
2021/03/19 01:18:33;;;;;;;4.33;2.59;;;;;;;2.99;74.66;98789.63;338862;117;1960686;-71
2021/03/19 01:19:40;;;;;;;5.07;2.64;;;;;;;3.00;74.28;98790.45;348476;113;1961995;-71
2021/03/19 01:20:47;;;;;;;5.22;2.89;;;;;;;2.99;74.14;98788.77;348267;114;1961970;-72
2021/03/19 01:22:02;;;;;;;5.86;3.01;;;;;;;3.01;74.79;98792.10;349598;114;1964883;-71
2021/03/19 01:23:08;;;;;;;5.83;3.07;;;;;;;3.04;75.00;98789.07;357180;113;1962002;-72
2021/03/19 01:24:14;;;;;;;5.51;3.27;;;;;;;3.02;74.85;98788.44;344318;113;2921916;-71
2021/03/19 01:25:30;;;;;;;5.68;3.30;;;;;;;3.03;75.11;98790.09;326145;113;1963934;-71
2021/03/19 01:26:40;;;;;;;6.26;3.23;;;;;;;3.04;74.84;98786.41;350383;112;1961912;-71
2021/03/19 01:27:46;;;;;;;5.93;3.19;;;;;;;3.02;74.09;98789.27;357443;111;1962980;-71
2021/03/19 01:28:52;;;;;;;6.79;3.32;;;;;;;2.99;73.85;98792.30;356504;111;1960792;-71
2021/03/19 01:30:00;;;;;;;5.76;3.42;;;;;;;3.00;74.43;98791.28;337955;109;1962879;-72
2021/03/19 01:31:08;;;;;;;5.86;3.27;;;;;;;3.02;74.25;98793.78;344390;115;1961874;-71
2021/03/19 01:32:14;;;;;;;4.80;2.96;;;;;;;3.01;74.34;98795.59;321867;112;1964036;-72
2021/03/19 01:33:20;;;;;;;4.95;2.84;;;;;;;2.99;74.18;98799.45;349612;112;1963886;-71
2021/03/19 01:34:26;;;;;;;6.66;3.27;;;;;;;2.99;74.04;98799.45;347525;114;1963006;-71
2021/03/19 01:35:33;;;;;;;6.17;3.63;;;;;;;2.97;73.60;98794.31;347190;114;1961930;-72
2021/03/19 01:36:40;;;;;;;6.26;3.47;;;;;;;2.98;74.49;98795.13;346290;114;1962926;-71
2021/03/19 01:37:50;;;;;;;6.92;3.43;;;;;;;2.99;74.48;98796.78;346447;114;1963994;-72
2021/03/19 01:39:04;;;;;;;4.26;2.67;;;;;;;2.96;74.21;98805.14;347931;113;1964997;-73
2021/03/19 01:40:13;;;;;;;6.62;3.42;;;;;;;2.92;73.90;98799.34;353786;112;1961964;-72
2021/03/19 01:41:19;;;;;;;5.21;3.11;;;;;;;2.90;74.36;98792.53;331413;114;2357731;-71
2021/03/19 01:42:24;;;;;;;4.84;2.98;;;;;;;2.91;74.25;98791.51;323580;114;1962026;-71
2021/03/19 01:44:07;;;;;;;5.76;3.17;;;;;;;2.92;74.63;98796.68;352987;114;1961942;-72
2021/03/19 01:45:50;;;;;;;6.08;3.56;;;;;;;2.93;75.18;98794.83;347384;114;1961971;-70
2021/03/19 01:47:14;;;;;;;;;;;;;;;2.97;75.23;98796.98;353187;114;1961026;-70
2021/03/19 01:48:57;;;;;;;6.22;3.94;;;;;;;2.99;74.79;98799.45;349472;114;1960969;-71
2021/03/19 01:50:37;;;;;;;7.10;3.59;;;;;;;3.01;75.15;98802.77;333861;114;1963999;-71
2021/03/19 01:52:19;;;;;;;8.58;3.70;;;;;;;3.04;75.18;98803.27;331208;120;1962041;-71
2021/03/19 01:53:55;;;;;;;5.84;3.54;;;;;;;3.10;74.96;98801.72;345326;115;1962005;-70
2021/03/19 01:55:38;;;;;;;6.42;3.41;;;;;;;3.10;74.99;98799.05;341706;116;1962929;-71
2021/03/19 01:57:20;;;;;;;6.62;3.07;;;;;;;3.14;75.30;98804.84;299701;114;2033503;-72
2021/03/19 01:59:03;;;;;;;6.72;3.44;;;;;;;3.22;75.27;98804.77;347513;114;1970069;-71
2021/03/19 02:00:47;;;;;;;6.60;3.28;;;;;;;3.22;75.18;98802.93;347965;114;1968878;-71
2021/03/19 02:02:30;;;;;;;7.04;3.88;;;;;;;3.25;74.43;98802.56;298717;114;2068840;-71
2021/03/19 02:04:13;;;;;;;7.07;3.69;;;;;;;3.16;73.81;98802.84;347024;114;1962017;-71
2021/03/19 02:05:55;;;;;;;5.06;3.22;;;;;;;3.11;74.52;98807.88;348239;114;1961990;-71
2021/03/19 02:07:39;;;;;;;5.76;3.04;;;;;;;3.09;74.08;98802.70;349394;114;1961998;-71
2021/03/19 02:09:22;;;;;;;5.60;3.18;;;;;;;3.08;74.09;98801.88;348051;114;1961984;-71
2021/03/19 02:10:45;;;;;;;;;;;;;;;3.03;74.61;98804.25;283874;114;2233649;-72
2021/03/19 02:12:28;;;;;;;6.37;3.27;;;;;;;3.02;75.16;98807.13;348530;114;1961971;-72
2021/03/19 02:14:11;;;;;;;7.59;3.74;;;;;;;3.04;74.99;98805.08;349106;114;1962066;-71
2021/03/19 02:15:55;;;;;;;8.14;3.82;;;;;;;3.09;75.71;98805.37;302285;107;2852616;-71
2021/03/19 02:17:38;;;;;;;5.48;3.20;;;;;;;3.09;74.97;98810.71;358417;111;1960771;-70
2021/03/19 02:19:21;;;;;;;8.02;3.33;;;;;;;3.14;74.99;98818.19;354034;111;1962013;-70
2021/03/19 02:21:06;;;;;;;6.71;3.45;;;;;;;3.11;75.32;98811.37;354765;111;1961931;-70
2021/03/19 02:22:49;;;;;;;6.12;3.74;;;;;;;3.18;75.30;98806.98;351513;112;1962085;-71
2021/03/19 02:24:31;;;;;;;7.35;3.51;;;;;;;3.21;75.02;98813.80;354108;111;1969969;-71
2021/03/19 02:26:15;;;;;;;7.02;3.37;;;;;;;3.16;73.99;98809.00;355583;113;1962028;-71
2021/03/19 02:27:58;;;;;;;7.66;3.78;;;;;;;3.08;74.14;98806.39;354472;111;1962009;-70
2021/03/19 02:29:41;;;;;;;7.71;3.56;;;;;;;3.04;74.66;98818.42;354496;111;1961920;-70
2021/03/19 02:31:12;;;;;;;7.68;3.55;;;;;;;3.04;74.84;98815.75;332781;112;2304074;-71
2021/03/19 02:32:21;;;;;;;6.55;3.21;;;;;;;3.02;75.01;98823.95;356216;111;1963013;-71
2021/03/19 02:33:27;;;;;;;6.01;3.49;;;;;;;3.07;75.02;98813.58;339559;111;1963967;-70
2021/03/19 02:34:39;;;;;;;6.62;3.86;;;;;;;3.08;74.85;98817.89;351522;107;1959680;-71
2021/03/19 02:35:54;;;;;;;6.83;3.63;;;;;;;3.11;75.22;98811.37;344421;115;1961930;-71
2021/03/19 02:37:00;;;;;;;6.03;3.49;;;;;;;3.16;75.11;98818.84;341217;116;1962972;-69
2021/03/19 02:38:06;;;;;;;6.42;3.21;;;;;;;3.14;74.35;98813.67;317999;116;2372973;-71
2021/03/19 02:39:11;;;;;;;5.25;3.25;;;;;;;3.05;74.01;98815.59;316119;116;1961962;-71
2021/03/19 02:40:21;;;;;;;5.08;3.11;;;;;;;3.00;74.32;98820.63;340108;116;1962037;-71
2021/03/19 02:41:26;;;;;;;6.55;3.73;;;;;;;2.90;74.64;98824.54;305845;116;1961981;-71
2021/03/19 02:42:32;;;;;;;6.54;3.34;;;;;;;2.89;75.02;98822.89;344002;115;1961955;-70
2021/03/19 02:43:38;;;;;;;5.41;3.05;;;;;;;2.88;75.49;98823.88;341448;116;1962028;-72
2021/03/19 02:44:44;;;;;;;5.79;2.94;;;;;;;2.90;75.30;98827.20;340891;116;1963019;-71
2021/03/19 02:45:49;;;;;;;5.53;3.24;;;;;;;2.91;75.19;98828.85;340819;116;1961960;-70
2021/03/19 02:46:55;;;;;;;7.15;3.14;;;;;;;2.93;75.75;98832.19;340236;116;1962053;-71
2021/03/19 02:48:01;;;;;;;5.99;3.59;;;;;;;2.93;75.58;98830.34;306004;118;2516945;-71
2021/03/19 02:49:06;;;;;;;6.48;3.42;;;;;;;2.93;75.26;98830.34;318274;118;1961995;-72
2021/03/19 02:50:14;;;;;;;5.41;3.28;;;;;;;2.92;75.26;98827.86;341495;116;1962010;-71
2021/03/19 02:51:20;;;;;;;7.55;4.01;;;;;;;2.93;75.52;98830.34;343901;115;1962005;-69
2021/03/19 02:52:28;;;;;;;5.42;3.27;;;;;;;2.92;75.53;98834.02;319284;115;2375005;-71
2021/03/19 02:53:37;;;;;;;5.32;3.12;;;;;;;2.94;75.78;98828.49;342235;115;1962175;-71
2021/03/19 02:54:42;;;;;;;5.86;3.07;;;;;;;2.95;75.85;98832.84;341036;116;1961916;-70
2021/03/19 02:55:48;;;;;;;6.04;3.17;;;;;;;2.95;75.51;98833.66;343188;115;1962027;-70
2021/03/19 02:56:53;;;;;;;6.26;3.81;;;;;;;2.97;74.96;98830.83;347448;108;1961919;-71
2021/03/19 02:57:59;;;;;;;6.07;3.33;;;;;;;2.98;75.29;98840.48;341719;116;1963001;-72
2021/03/19 02:59:05;;;;;;;6.23;3.40;;;;;;;2.97;75.27;98836.17;338883;117;1963031;-71
2021/03/19 03:00:15;;;;;;;6.69;3.55;;;;;;;3.00;75.67;98833.14;305420;118;2531921;-72
2021/03/19 03:01:21;;;;;;;7.52;3.64;;;;;;;2.97;74.83;98838.84;313863;117;2447912;-70
2021/03/19 03:02:27;;;;;;;6.38;3.99;;;;;;;2.98;74.45;98835.15;333404;118;1963007;-72
2021/03/19 03:03:33;;;;;;;6.13;3.44;;;;;;;2.88;74.08;98835.37;332160;118;1963940;-72
2021/03/19 03:04:38;;;;;;;7.12;4.24;;;;;;;2.75;74.42;98830.64;334632;118;1965390;-72
2021/03/19 03:05:45;;;;;;;6.11;3.57;;;;;;;2.80;74.82;98838.92;333843;118;1961969;-71
2021/03/19 03:06:54;;;;;;;7.08;3.47;;;;;;;2.82;74.81;98842.25;311765;117;2470967;-72
2021/03/19 03:08:01;;;;;;;5.68;3.49;;;;;;;2.78;74.64;98840.10;291859;117;2847997;-72
2021/03/19 03:09:09;;;;;;;7.34;3.44;;;;;;;2.78;74.90;98838.29;338873;117;1963971;-71
2021/03/19 03:10:18;;;;;;;7.39;3.86;;;;;;;2.80;74.40;98848.77;304684;117;2602905;-70
2021/03/19 03:11:24;;;;;;;6.74;3.53;;;;;;;2.81;75.04;98850.44;336196;118;1962139;-72
2021/03/19 03:12:32;;;;;;;7.84;3.92;;;;;;;2.82;74.94;98852.09;331140;117;2952027;-71
2021/03/19 03:13:39;;;;;;;7.16;4.32;;;;;;;2.83;75.53;98851.07;340863;117;1962961;-70
2021/03/19 03:14:46;;;;;;;5.57;3.39;;;;;;;2.81;75.36;98842.44;332468;117;2936996;-70
2021/03/19 03:15:52;;;;;;;5.48;3.13;;;;;;;2.83;75.61;98851.07;338678;116;1962049;-70
2021/03/19 03:17:00;;;;;;;6.43;3.28;;;;;;;2.85;75.78;98844.55;341228;116;1961710;-71
2021/03/19 03:18:07;;;;;;;6.71;3.86;;;;;;;2.90;75.00;98853.88;332078;116;1961996;-71
2021/03/19 03:19:15;;;;;;;6.58;4.00;;;;;;;2.91;75.38;98850.19;340524;116;1961969;-71
2021/03/19 03:20:28;;;;;;;6.37;3.42;;;;;;;2.94;75.50;98848.02;333499;117;1961973;-72
2021/03/19 03:21:35;;;;;;;7.27;3.77;;;;;;;2.98;75.88;98854.64;334592;118;1963032;-70
2021/03/19 03:22:42;;;;;;;5.79;3.38;;;;;;;3.00;74.97;98851.81;332037;116;1962009;-71
2021/03/19 03:23:47;;;;;;;5.99;3.45;;;;;;;2.96;74.76;98851.32;339227;117;1963900;-71
2021/03/19 03:24:52;;;;;;;6.77;3.74;;;;;;;2.95;75.00;98852.34;340453;117;1961969;-70
2021/03/19 03:25:57;;;;;;;6.54;3.46;;;;;;;2.93;74.77;98853.52;340224;116;1961971;-71
2021/03/19 03:27:04;;;;;;;6.14;3.64;;;;;;;2.91;74.99;98853.72;341586;116;1961928;-70
2021/03/19 03:28:11;;;;;;;6.42;3.62;;;;;;;2.92;75.00;98858.03;307620;117;2564975;-71
2021/03/19 03:29:20;;;;;;;6.53;3.71;;;;;;;2.86;74.69;98858.75;334624;118;1961956;-72
2021/03/19 03:30:29;;;;;;;6.53;3.87;;;;;;;2.88;74.82;98856.71;313426;119;1963984;-70
2021/03/19 03:31:36;;;;;;;7.07;3.83;;;;;;;2.86;74.33;98854.23;319256;118;2262358;-70
2021/03/19 03:32:43;;;;;;;6.16;3.33;;;;;;;2.84;74.84;98856.24;333525;118;1962939;-70
2021/03/19 03:33:50;;;;;;;6.74;3.42;;;;;;;2.81;75.30;98853.94;318200;118;2279955;-70
2021/03/19 03:34:55;;;;;;;5.82;3.84;;;;;;;2.82;75.61;98857.42;317196;116;1962002;-72
2021/03/19 03:36:03;;;;;;;6.39;3.61;;;;;;;2.81;74.75;98856.60;329597;116;1962890;-70
2021/03/19 03:37:09;;;;;;;5.91;3.48;;;;;;;2.64;75.03;98828.36;340396;117;1965042;-70
2021/03/19 03:38:19;;;;;;;6.56;3.87;;;;;;;2.84;75.15;98856.24;300523;116;2237017;-70
2021/03/19 03:39:28;;;;;;;6.87;4.38;;;;;;;2.83;75.10;98854.59;331690;117;2931996;-71
2021/03/19 03:40:40;;;;;;;6.81;3.97;;;;;;;2.86;74.97;98856.91;341811;117;1961932;-70
2021/03/19 03:41:46;;;;;;;6.59;3.88;;;;;;;2.84;74.24;98856.24;339623;117;1964936;-70
2021/03/19 03:42:52;;;;;;;6.03;3.41;;;;;;;2.84;74.90;98856.24;339656;117;1961988;-70
2021/03/19 03:43:57;;;;;;;6.55;3.19;;;;;;;2.83;75.23;98859.93;340090;116;1963018;-70
2021/03/19 03:45:05;;;;;;;6.91;4.31;;;;;;;2.86;74.62;98856.08;340007;117;1961998;-70
2021/03/19 03:46:15;;;;;;;7.96;4.08;;;;;;;2.85;74.77;98852.56;341406;116;1961893;-70
2021/03/19 03:47:21;;;;;;;6.76;4.03;;;;;;;2.85;74.42;98860.56;333856;118;1963205;-71
2021/03/19 03:48:30;;;;;;;6.38;3.87;;;;;;;2.84;74.58;98858.09;333679;116;1962034;-70
2021/03/19 03:49:35;;;;;;;5.73;3.35;;;;;;;2.84;75.41;98861.58;316321;117;1961951;-70
2021/03/19 03:50:43;;;;;;;6.04;3.68;;;;;;;2.83;74.74;98859.93;330693;120;1961953;-71
2021/03/19 03:51:49;;;;;;;6.64;3.67;;;;;;;2.83;74.93;98854.59;338066;117;1963735;-70
2021/03/19 03:52:55;;;;;;;6.59;3.99;;;;;;;2.82;74.47;98858.25;305854;116;2595937;-71
2021/03/19 03:54:00;;;;;;;7.23;3.99;;;;;;;2.83;74.88;98859.93;317494;116;1961941;-71
2021/03/19 03:55:08;;;;;;;6.98;3.52;;;;;;;2.83;74.15;98853.73;333074;116;1962987;-71
2021/03/19 03:56:25;;;;;;;6.46;3.52;;;;;;;2.81;74.51;98856.60;340421;117;1962966;-73
2021/03/19 03:57:30;;;;;;;6.82;3.81;;;;;;;2.24;74.28;98768.94;353604;111;1960714;-72
2021/03/19 03:58:37;;;;;;;6.25;3.52;;;;;;;2.75;74.68;98851.13;350061;113;1960870;-72
2021/03/19 03:59:42;;;;;;;5.62;3.56;;;;;;;2.73;75.16;98851.31;348644;114;1960801;-71
2021/03/19 04:00:48;;;;;;;6.08;3.59;;;;;;;2.74;74.92;98862.81;350940;113;1962007;-71
2021/03/19 04:01:54;;;;;;;6.19;3.55;;;;;;;2.74;74.95;98854.81;315995;113;2240998;-72
2021/03/19 04:03:11;;;;;;;7.11;4.10;;;;;;;2.67;74.48;98860.00;349396;114;1961951;-72
2021/03/19 04:04:18;;;;;;;7.64;4.14;;;;;;;2.63;75.21;98856.86;352590;115;1961925;-72
2021/03/19 04:05:31;;;;;;;7.04;3.97;;;;;;;2.67;75.69;98857.33;315530;114;2664018;-72
2021/03/19 04:06:37;;;;;;;6.66;4.24;;;;;;;2.70;75.37;98857.01;354332;112;1961897;-72
2021/03/19 04:07:43;;;;;;;5.23;3.59;;;;;;;2.66;75.18;98854.86;351285;114;1962049;-72
2021/03/19 04:08:49;;;;;;;7.44;3.79;;;;;;;2.61;75.21;98858.04;304332;114;2794030;-72
2021/03/19 04:09:54;;;;;;;7.01;4.03;;;;;;;2.60;75.83;98854.55;330910;114;1962043;-72
2021/03/19 04:11:03;;;;;;;6.76;3.75;;;;;;;2.64;75.50;98858.51;349407;112;1962947;-73
2021/03/19 04:12:11;;;;;;;5.30;3.49;;;;;;;2.66;75.52;98853.02;289362;115;2198428;-71
2021/03/19 04:13:17;;;;;;;7.26;3.82;;;;;;;2.67;75.08;98857.33;353765;113;1961986;-70
2021/03/19 04:14:23;;;;;;;6.38;3.81;;;;;;;2.69;75.13;98859.84;357341;112;1961880;-71
2021/03/19 04:15:29;;;;;;;6.88;3.80;;;;;;;2.65;75.07;98854.03;345465;114;2938908;-71
2021/03/19 04:16:36;;;;;;;8.59;4.42;;;;;;;2.68;75.55;98861.67;355612;112;1961913;-71
2021/03/19 04:17:44;;;;;;;7.49;3.69;;;;;;;2.67;75.68;98851.17;355294;112;1961986;-71
2021/03/19 04:18:49;;;;;;;6.81;3.95;;;;;;;2.71;75.19;98865.83;341897;112;1962072;-71
2021/03/19 04:19:56;;;;;;;6.68;4.14;;;;;;;2.67;75.16;98856.51;351132;113;1962034;-71
2021/03/19 04:21:07;;;;;;;7.54;4.19;;;;;;;2.67;75.24;98856.51;353551;112;1961862;-70
2021/03/19 04:22:11;;;;;;;7.96;4.44;;;;;;;2.69;75.53;98857.99;348857;115;1961975;-71
2021/03/19 04:23:18;;;;;;;8.77;5.29;;;;;;;2.69;75.59;98857.99;354422;113;1962047;-72
2021/03/19 04:24:23;;;;;;;7.54;4.47;;;;;;;2.69;75.32;98863.33;311890;112;2240941;-71
2021/03/19 04:25:29;;;;;;;7.02;4.24;;;;;;;2.69;75.82;98865.99;324571;112;1962039;-71
2021/03/19 04:26:35;;;;;;;7.41;4.13;;;;;;;2.69;75.85;98857.99;347006;113;1961945;-72
2021/03/19 04:27:49;;;;;;;8.66;4.92;;;;;;;2.72;76.14;98862.97;356723;113;1961911;-71
2021/03/19 04:28:56;;;;;;;7.21;4.00;;;;;;;2.77;76.10;98865.13;355661;113;1962030;-72
2021/03/19 04:30:02;;;;;;;7.52;3.98;;;;;;;2.79;75.43;98866.61;355469;114;1962951;-72
2021/03/19 04:31:08;;;;;;;7.44;4.42;;;;;;;2.75;74.56;98867.98;317472;112;2632982;-71
2021/03/19 04:32:14;;;;;;;7.99;4.57;;;;;;;2.74;74.70;98866.30;321437;114;1961971;-72
2021/03/19 04:33:23;;;;;;;6.67;3.73;;;;;;;2.72;75.14;98857.64;356392;112;1961982;-71
2021/03/19 04:34:29;;;;;;;7.59;4.41;;;;;;;2.74;75.29;98863.63;355711;113;1961911;-72
2021/03/19 04:35:35;;;;;;;8.06;4.56;;;;;;;2.74;75.03;98868.97;354890;114;1961931;-70
2021/03/19 04:36:47;;;;;;;7.54;4.48;;;;;;;2.79;75.36;98863.94;350288;115;1961949;-71
2021/03/19 04:37:56;;;;;;;7.83;4.27;;;;;;;2.79;74.97;98871.11;349737;115;1965040;-71
2021/03/19 04:39:06;;;;;;;9.28;4.58;;;;;;;2.79;74.49;98860.45;349041;115;1962936;-71
2021/03/19 04:40:12;;;;;;;6.86;4.03;;;;;;;2.75;74.83;98867.98;349210;114;1961998;-71
2021/03/19 04:41:19;;;;;;;6.19;3.85;;;;;;;2.75;75.30;98870.65;315643;114;2558977;-71
2021/03/19 04:42:24;;;;;;;7.22;4.48;;;;;;;2.75;75.13;98864.45;348083;116;1963961;-71
2021/03/19 04:43:30;;;;;;;7.52;4.53;;;;;;;2.69;75.15;98865.99;346727;116;1962031;-71
2021/03/19 04:44:39;;;;;;;7.56;4.71;;;;;;;2.73;75.44;98867.31;354892;114;1962977;-71
2021/03/19 04:45:45;;;;;;;8.41;5.30;;;;;;;2.75;75.57;98864.45;354388;113;1962017;-71
2021/03/19 04:46:52;;;;;;;6.03;3.86;;;;;;;2.74;75.27;98876.14;355315;113;1961894;-70
2021/03/19 04:47:58;;;;;;;8.54;4.19;;;;;;;2.71;75.04;98865.83;289299;115;2173132;-71
2021/03/19 04:49:03;;;;;;;7.99;4.89;;;;;;;2.69;75.48;98873.17;331365;114;1964006;-71
2021/03/19 04:50:11;;;;;;;7.35;4.06;;;;;;;2.65;75.55;98867.37;350133;115;1961962;-70
2021/03/19 04:51:17;;;;;;;7.96;4.66;;;;;;;2.68;75.89;98866.19;354588;113;1961969;-71
2021/03/19 04:52:24;;;;;;;7.54;4.74;;;;;;;2.73;75.65;98869.16;357032;108;1960786;-70
2021/03/19 04:53:29;;;;;;;7.66;4.29;;;;;;;2.75;75.50;98875.13;360913;110;1961926;-71
2021/03/19 04:54:35;;;;;;;8.83;4.91;;;;;;;2.73;75.41;98874.49;353238;112;1963964;-71
2021/03/19 04:55:40;;;;;;;6.62;4.33;;;;;;;2.78;75.41;98874.77;367598;108;1961911;-72
2021/03/19 04:56:46;;;;;;;6.96;4.40;;;;;;;2.74;74.72;98870.81;367691;108;1962943;-72
2021/03/19 04:57:53;;;;;;;7.02;3.93;;;;;;;2.71;75.03;98877.33;331748;110;2884767;-72
2021/03/19 04:58:58;;;;;;;9.43;4.81;;;;;;;2.75;75.58;98872.45;363374;109;1961922;-72
2021/03/19 05:00:07;;;;;;;8.42;4.39;;;;;;;2.79;75.59;98873.78;368015;108;1962034;-72
2021/03/19 05:01:13;;;;;;;9.51;4.62;;;;;;;2.79;74.81;98866.61;305474;109;2156659;-72
2021/03/19 05:02:31;;;;;;;6.80;4.21;;;;;;;2.83;75.12;98875.94;363394;110;1961924;-71
2021/03/19 05:03:38;;;;;;;7.96;4.60;;;;;;;2.86;75.48;98867.58;333067;112;1962014;-71
2021/03/19 05:04:45;;;;;;;9.26;4.85;;;;;;;2.91;75.70;98871.53;357283;112;1962048;-72
2021/03/19 05:05:52;;;;;;;6.88;3.86;;;;;;;2.95;75.37;98875.52;318474;111;2716035;-72
2021/03/19 05:07:02;;;;;;;7.58;4.06;;;;;;;3.00;75.30;98876.65;354485;109;1961927;-71
2021/03/19 05:08:07;;;;;;;7.61;4.08;;;;;;;3.03;74.64;98880.80;297411;111;2221596;-71
2021/03/19 05:09:13;;;;;;;6.93;3.81;;;;;;;3.04;74.67;98872.64;344368;109;1962021;-72
2021/03/19 05:10:22;;;;;;;9.73;4.63;;;;;;;3.08;75.04;98870.44;363282;109;1962058;-72
2021/03/19 05:11:27;;;;;;;6.91;3.92;;;;;;;3.04;74.05;98871.78;313971;111;2054939;-72
2021/03/19 05:12:33;;;;;;;7.87;4.62;;;;;;;3.05;74.60;98871.62;341679;111;1963919;-71
2021/03/19 05:13:41;;;;;;;8.77;5.21;;;;;;;3.07;74.70;98876.79;365247;110;1961968;-71
2021/03/19 05:14:48;;;;;;;7.52;4.86;;;;;;;3.07;74.59;98866.94;363856;109;1963020;-72
2021/03/19 05:15:54;;;;;;;8.87;4.54;;;;;;;3.10;74.80;98873.77;363896;111;1963981;-71
2021/03/19 05:16:59;;;;;;;8.22;4.92;;;;;;;3.14;74.92;98877.72;365140;110;1961970;-70
2021/03/19 05:18:15;;;;;;;8.72;4.88;;;;;;;3.17;74.08;98879.20;365605;108;1962038;-71
2021/03/19 05:19:21;;;;;;;7.51;4.19;;;;;;;3.19;74.24;98878.02;356100;111;1961982;-72
2021/03/19 05:20:28;;;;;;;8.96;4.54;;;;;;;3.18;73.68;98884.38;327496;111;2465014;-73
2021/03/19 05:21:33;;;;;;;9.17;4.82;;;;;;;3.19;73.47;98878.02;353861;111;1962052;-73
2021/03/19 05:22:41;;;;;;;7.87;4.52;;;;;;;3.18;73.27;98879.03;353128;112;1962012;-73
2021/03/19 05:23:47;;;;;;;7.63;4.37;;;;;;;3.21;73.35;98878.68;315305;112;2655946;-74
2021/03/19 05:24:56;;;;;;;8.97;5.38;;;;;;;3.15;72.59;98883.88;348460;113;1961904;-73
2021/03/19 05:26:04;;;;;;;7.37;4.57;;;;;;;3.09;72.64;98880.91;315280;115;2573007;-74
2021/03/19 05:27:10;;;;;;;8.19;4.78;;;;;;;3.11;73.01;98878.08;346901;115;1963970;-73
2021/03/19 05:28:17;;;;;;;8.17;4.65;;;;;;;3.07;72.29;98887.47;345560;115;1962075;-73
2021/03/19 05:29:22;;;;;;;7.61;4.72;;;;;;;3.11;72.98;98883.41;306227;112;2043608;-74